Current Weather

Aghajari

Aghajari, Iran (OIAG)

Report from: Monday, July 22, 2024 10:00 AM UTC
Current time: Monday, July 22, 2024 10:58 AM UTC

Nearby weather – Weather history – Daily summaries
Weather forecast

Temperature46.0°C (114.8°F)
Heat index43.9°C (111.0°F)
Dew point9.0°C (48.2°F)
Winds 8 kts (4.1 m/s, 9.2 mph) West-Southwest (240°)
Clouds Sky clear
Altimeter29.41 in.Hg (996 mB)
Relative humidity11 %
Density altitude4,182 ft. (1,275 m)
Remarks Ceiling and visibility OK
Flight conditions Visual Meteorological Conditions
Raw dataOIAG 221000Z 24008KT CAVOK 46/09 Q0996
An error has occurred. This application may no longer respond until reloaded. Reload 🗙